sensor_id;sensor_type;location;lat;lon;timestamp;pressure;altitude;pressure_sealevel;temperature
76713;BMP280;65640;43.154;25.658;2023-08-08T00:01:14;100521.47;;;19.57
76713;BMP280;65640;43.154;25.658;2023-08-08T00:03:40;100516.13;;;19.45
76713;BMP280;65640;43.154;25.658;2023-08-08T00:06:05;100520.41;;;19.25
76713;BMP280;65640;43.154;25.658;2023-08-08T00:08:30;100505.56;;;19.12
76713;BMP280;65640;43.154;25.658;2023-08-08T00:10:56;100506.53;;;19.08
76713;BMP280;65640;43.154;25.658;2023-08-08T00:13:22;100492.44;;;18.95
76713;BMP280;65640;43.154;25.658;2023-08-08T00:15:47;100487.56;;;18.97
76713;BMP280;65640;43.154;25.658;2023-08-08T00:18:13;100491.91;;;19.02
76713;BMP280;65640;43.154;25.658;2023-08-08T00:20:39;100496.31;;;18.98
76713;BMP280;65640;43.154;25.658;2023-08-08T00:23:04;100484.50;;;18.95
76713;BMP280;65640;43.154;25.658;2023-08-08T00:25:29;100487.56;;;18.97
76713;BMP280;65640;43.154;25.658;2023-08-08T00:27:55;100477.31;;;18.96
76713;BMP280;65640;43.154;25.658;2023-08-08T00:30:20;100478.00;;;19.05
76713;BMP280;65640;43.154;25.658;2023-08-08T00:32:46;100476.88;;;19.06
76713;BMP280;65640;43.154;25.658;2023-08-08T00:35:11;100467.81;;;19.07
76713;BMP280;65640;43.154;25.658;2023-08-08T00:37:37;100461.09;;;19.09
76713;BMP280;65640;43.154;25.658;2023-08-08T00:40:02;100468.28;;;19.21
76713;BMP280;65640;43.154;25.658;2023-08-08T00:42:28;100482.66;;;19.20
76713;BMP280;65640;43.154;25.658;2023-08-08T00:44:53;100478.72;;;19.14
76713;BMP280;65640;43.154;25.658;2023-08-08T00:47:18;100478.00;;;19.17
76713;BMP280;65640;43.154;25.658;2023-08-08T00:49:44;100481.88;;;19.19
76713;BMP280;65640;43.154;25.658;2023-08-08T00:52:12;100470.50;;;19.19
76713;BMP280;65640;43.154;25.658;2023-08-08T00:54:38;100469.63;;;19.15
76713;BMP280;65640;43.154;25.658;2023-08-08T00:57:04;100480.25;;;19.27
76713;BMP280;65640;43.154;25.658;2023-08-08T00:59:30;100488.47;;;19.34
76713;BMP280;65640;43.154;25.658;2023-08-08T01:01:57;100491.66;;;19.39
76713;BMP280;65640;43.154;25.658;2023-08-08T01:04:25;100494.09;;;19.45
76713;BMP280;65640;43.154;25.658;2023-08-08T01:09:41;100484.13;;;19.29
76713;BMP280;65640;43.154;25.658;2023-08-08T01:12:11;100485.81;;;19.34
76713;BMP280;65640;43.154;25.658;2023-08-08T01:14:40;100498.41;;;19.37
76713;BMP280;65640;43.154;25.658;2023-08-08T01:17:05;100508.56;;;19.23
76713;BMP280;65640;43.154;25.658;2023-08-08T01:19:32;100510.16;;;19.36
76713;BMP280;65640;43.154;25.658;2023-08-08T01:22:05;100508.72;;;19.51
76713;BMP280;65640;43.154;25.658;2023-08-08T01:24:32;100515.00;;;19.34
76713;BMP280;65640;43.154;25.658;2023-08-08T01:27:00;100522.28;;;19.25
76713;BMP280;65640;43.154;25.658;2023-08-08T01:29:26;100526.81;;;19.24
76713;BMP280;65640;43.154;25.658;2023-08-08T01:31:52;100521.28;;;18.97
76713;BMP280;65640;43.154;25.658;2023-08-08T01:34:18;100529.88;;;18.81
76713;BMP280;65640;43.154;25.658;2023-08-08T01:36:57;100535.69;;;18.75
76713;BMP280;65640;43.154;25.658;2023-08-08T01:39:26;100526.91;;;18.62
76713;BMP280;65640;43.154;25.658;2023-08-08T01:41:54;100531.81;;;18.52
76713;BMP280;65640;43.154;25.658;2023-08-08T01:44:20;100531.31;;;18.58
76713;BMP280;65640;43.154;25.658;2023-08-08T01:46:47;100531.25;;;18.67
76713;BMP280;65640;43.154;25.658;2023-08-08T01:49:12;100522.28;;;18.59
76713;BMP280;65640;43.154;25.658;2023-08-08T01:51:37;100534.41;;;18.60
76713;BMP280;65640;43.154;25.658;2023-08-08T01:54:03;100538.19;;;18.59
76713;BMP280;65640;43.154;25.658;2023-08-08T01:56:29;100543.31;;;18.56
76713;BMP280;65640;43.154;25.658;2023-08-08T01:58:54;100543.19;;;18.52
76713;BMP280;65640;43.154;25.658;2023-08-08T02:01:19;100539.75;;;18.52
76713;BMP280;65640;43.154;25.658;2023-08-08T02:03:45;100530.16;;;18.47
76713;BMP280;65640;43.154;25.658;2023-08-08T02:06:10;100521.53;;;18.50
76713;BMP280;65640;43.154;25.658;2023-08-08T02:08:36;100533.50;;;18.35
76713;BMP280;65640;43.154;25.658;2023-08-08T02:11:01;100538.66;;;18.32
76713;BMP280;65640;43.154;25.658;2023-08-08T02:13:26;100536.09;;;18.44
76713;BMP280;65640;43.154;25.658;2023-08-08T02:15:52;100532.06;;;18.38
76713;BMP280;65640;43.154;25.658;2023-08-08T02:18:18;100532.63;;;18.23
76713;BMP280;65640;43.154;25.658;2023-08-08T02:20:43;100535.28;;;18.23
76713;BMP280;65640;43.154;25.658;2023-08-08T02:23:09;100553.78;;;18.31
76713;BMP280;65640;43.154;25.658;2023-08-08T02:25:34;100543.03;;;18.28
76713;BMP280;65640;43.154;25.658;2023-08-08T02:27:59;100536.84;;;18.24
76713;BMP280;65640;43.154;25.658;2023-08-08T02:30:25;100516.53;;;18.28
76713;BMP280;65640;43.154;25.658;2023-08-08T02:32:50;100514.59;;;18.46
76713;BMP280;65640;43.154;25.658;2023-08-08T02:35:16;100522.53;;;18.66
76713;BMP280;65640;43.154;25.658;2023-08-08T02:37:41;100521.22;;;18.72
76713;BMP280;65640;43.154;25.658;2023-08-08T02:40:07;100533.50;;;18.77
76713;BMP280;65640;43.154;25.658;2023-08-08T02:42:33;100531.63;;;18.77
76713;BMP280;65640;43.154;25.658;2023-08-08T02:44:58;100542.19;;;18.65
76713;BMP280;65640;43.154;25.658;2023-08-08T02:47:24;100556.94;;;18.54
76713;BMP280;65640;43.154;25.658;2023-08-08T02:49:50;100565.50;;;18.51
76713;BMP280;65640;43.154;25.658;2023-08-08T02:52:15;100576.84;;;18.39
76713;BMP280;65640;43.154;25.658;2023-08-08T02:54:40;100575.97;;;18.27
76713;BMP280;65640;43.154;25.658;2023-08-08T02:57:06;100590.75;;;18.28
76713;BMP280;65640;43.154;25.658;2023-08-08T02:59:32;100602.47;;;18.27
76713;BMP280;65640;43.154;25.658;2023-08-08T03:01:57;100598.16;;;18.22
76713;BMP280;65640;43.154;25.658;2023-08-08T03:04:22;100606.75;;;18.11
76713;BMP280;65640;43.154;25.658;2023-08-08T03:06:48;100615.16;;;18.13
76713;BMP280;65640;43.154;25.658;2023-08-08T03:09:13;100610.84;;;18.00
76713;BMP280;65640;43.154;25.658;2023-08-08T03:11:39;100617.25;;;17.99
76713;BMP280;65640;43.154;25.658;2023-08-08T03:14:07;100621.72;;;18.07
76713;BMP280;65640;43.154;25.658;2023-08-08T03:16:33;100626.69;;;18.17
76713;BMP280;65640;43.154;25.658;2023-08-08T03:18:58;100625.81;;;18.33
76713;BMP280;65640;43.154;25.658;2023-08-08T03:21:23;100626.06;;;18.49
76713;BMP280;65640;43.154;25.658;2023-08-08T03:23:49;100630.50;;;18.36
76713;BMP280;65640;43.154;25.658;2023-08-08T03:26:14;100638.66;;;18.23
76713;BMP280;65640;43.154;25.658;2023-08-08T03:28:40;100642.91;;;18.07
76713;BMP280;65640;43.154;25.658;2023-08-08T03:31:05;100651.84;;;17.85
76713;BMP280;65640;43.154;25.658;2023-08-08T03:33:31;100656.25;;;17.72
76713;BMP280;65640;43.154;25.658;2023-08-08T03:35:56;100651.28;;;17.62
76713;BMP280;65640;43.154;25.658;2023-08-08T03:38:21;100653.31;;;17.48
76713;BMP280;65640;43.154;25.658;2023-08-08T03:40:47;100646.47;;;17.47
76713;BMP280;65640;43.154;25.658;2023-08-08T03:43:13;100653.91;;;17.62
76713;BMP280;65640;43.154;25.658;2023-08-08T03:45:39;100662.28;;;17.81
76713;BMP280;65640;43.154;25.658;2023-08-08T03:48:04;100671.97;;;17.86
76713;BMP280;65640;43.154;25.658;2023-08-08T03:50:30;100670.25;;;17.99
76713;BMP280;65640;43.154;25.658;2023-08-08T03:52:56;100667.28;;;17.91
76713;BMP280;65640;43.154;25.658;2023-08-08T03:55:22;100675.38;;;17.86
76713;BMP280;65640;43.154;25.658;2023-08-08T03:57:47;100677.88;;;17.91
76713;BMP280;65640;43.154;25.658;2023-08-08T04:00:12;100678.34;;;17.93
76713;BMP280;65640;43.154;25.658;2023-08-08T04:02:38;100673.81;;;17.85
76713;BMP280;65640;43.154;25.658;2023-08-08T04:05:04;100672.28;;;17.84
76713;BMP280;65640;43.154;25.658;2023-08-08T04:07:30;100665.72;;;17.90
76713;BMP280;65640;43.154;25.658;2023-08-08T04:09:55;100675.72;;;17.93
76713;BMP280;65640;43.154;25.658;2023-08-08T04:12:20;100679.91;;;18.03
76713;BMP280;65640;43.154;25.658;2023-08-08T04:14:46;100675.66;;;18.11
76713;BMP280;65640;43.154;25.658;2023-08-08T04:17:11;100666.47;;;18.00
76713;BMP280;65640;43.154;25.658;2023-08-08T04:19:37;100673.00;;;18.11
76713;BMP280;65640;43.154;25.658;2023-08-08T04:22:02;100676.59;;;18.06
76713;BMP280;65640;43.154;25.658;2023-08-08T04:24:28;100669.31;;;18.03
76713;BMP280;65640;43.154;25.658;2023-08-08T04:26:53;100676.00;;;18.01
76713;BMP280;65640;43.154;25.658;2023-08-08T04:29:18;100679.44;;;17.92
76713;BMP280;65640;43.154;25.658;2023-08-08T04:31:44;100686.75;;;17.95
76713;BMP280;65640;43.154;25.658;2023-08-08T04:34:09;100691.13;;;18.00
76713;BMP280;65640;43.154;25.658;2023-08-08T04:36:35;100693.72;;;18.09
76713;BMP280;65640;43.154;25.658;2023-08-08T04:39:00;100701.38;;;18.10
76713;BMP280;65640;43.154;25.658;2023-08-08T04:41:25;100694.84;;;17.99
76713;BMP280;65640;43.154;25.658;2023-08-08T04:43:51;100697.81;;;17.98
76713;BMP280;65640;43.154;25.658;2023-08-08T04:46:16;100692.84;;;17.96
76713;BMP280;65640;43.154;25.658;2023-08-08T04:48:42;100696.75;;;17.99
76713;BMP280;65640;43.154;25.658;2023-08-08T04:51:08;100697.34;;;17.95
76713;BMP280;65640;43.154;25.658;2023-08-08T04:53:33;100701.09;;;17.86
76713;BMP280;65640;43.154;25.658;2023-08-08T04:55:59;100703.28;;;17.92
76713;BMP280;65640;43.154;25.658;2023-08-08T04:58:24;100712.00;;;17.93
76713;BMP280;65640;43.154;25.658;2023-08-08T05:00:50;100713.75;;;17.80
76713;BMP280;65640;43.154;25.658;2023-08-08T05:03:20;100717.94;;;17.81
76713;BMP280;65640;43.154;25.658;2023-08-08T05:05:45;100722.81;;;17.79
76713;BMP280;65640;43.154;25.658;2023-08-08T05:08:15;100721.38;;;17.73
76713;BMP280;65640;43.154;25.658;2023-08-08T05:10:40;100726.34;;;17.75
76713;BMP280;65640;43.154;25.658;2023-08-08T05:13:05;100725.25;;;17.67
76713;BMP280;65640;43.154;25.658;2023-08-08T05:15:31;100728.69;;;17.68
76713;BMP280;65640;43.154;25.658;2023-08-08T05:17:57;100722.47;;;17.72
76713;BMP280;65640;43.154;25.658;2023-08-08T05:20:22;100726.97;;;17.72
76713;BMP280;65640;43.154;25.658;2023-08-08T05:22:48;100726.06;;;17.76
76713;BMP280;65640;43.154;25.658;2023-08-08T05:25:13;100738.22;;;17.77
76713;BMP280;65640;43.154;25.658;2023-08-08T05:27:39;100762.19;;;17.72
76713;BMP280;65640;43.154;25.658;2023-08-08T05:30:05;100768.28;;;17.64
76713;BMP280;65640;43.154;25.658;2023-08-08T05:32:30;100772.63;;;17.60
76713;BMP280;65640;43.154;25.658;2023-08-08T05:34:56;100784.47;;;17.63
76713;BMP280;65640;43.154;25.658;2023-08-08T05:37:23;100787.41;;;17.61
76713;BMP280;65640;43.154;25.658;2023-08-08T05:39:49;100789.59;;;17.68
76713;BMP280;65640;43.154;25.658;2023-08-08T05:42:14;100786.03;;;17.64
76713;BMP280;65640;43.154;25.658;2023-08-08T05:44:39;100769.19;;;17.60
76713;BMP280;65640;43.154;25.658;2023-08-08T05:47:07;100760.78;;;17.66
76713;BMP280;65640;43.154;25.658;2023-08-08T05:49:32;100751.59;;;17.72
76713;BMP280;65640;43.154;25.658;2023-08-08T05:51:58;100753.03;;;17.78
76713;BMP280;65640;43.154;25.658;2023-08-08T05:54:23;100757.34;;;17.83
76713;BMP280;65640;43.154;25.658;2023-08-08T05:56:48;100763.59;;;17.95
76713;BMP280;65640;43.154;25.658;2023-08-08T05:59:14;100771.09;;;18.02
76713;BMP280;65640;43.154;25.658;2023-08-08T06:01:39;100781.06;;;17.96
76713;BMP280;65640;43.154;25.658;2023-08-08T06:04:05;100793.03;;;17.94
76713;BMP280;65640;43.154;25.658;2023-08-08T06:06:30;100799.91;;;17.95
76713;BMP280;65640;43.154;25.658;2023-08-08T06:08:55;100801.47;;;17.96
76713;BMP280;65640;43.154;25.658;2023-08-08T06:11:21;100789.78;;;17.88
76713;BMP280;65640;43.154;25.658;2023-08-08T06:13:48;100789.31;;;17.86
76713;BMP280;65640;43.154;25.658;2023-08-08T06:16:14;100787.56;;;17.82
76713;BMP280;65640;43.154;25.658;2023-08-08T06:18:40;100794.13;;;17.84
76713;BMP280;65640;43.154;25.658;2023-08-08T06:21:05;100811.28;;;17.95
76713;BMP280;65640;43.154;25.658;2023-08-08T06:23:31;100814.56;;;17.92
76713;BMP280;65640;43.154;25.658;2023-08-08T06:25:56;100812.84;;;17.96
76713;BMP280;65640;43.154;25.658;2023-08-08T06:28:23;100810.84;;;18.02
76713;BMP280;65640;43.154;25.658;2023-08-08T06:30:48;100793.81;;;17.94
76713;BMP280;65640;43.154;25.658;2023-08-08T06:33:14;100793.22;;;17.98
76713;BMP280;65640;43.154;25.658;2023-08-08T06:35:39;100800.53;;;18.01
76713;BMP280;65640;43.154;25.658;2023-08-08T06:38:05;100793.34;;;18.18
76713;BMP280;65640;43.154;25.658;2023-08-08T06:40:30;100792.53;;;18.26
76713;BMP280;65640;43.154;25.658;2023-08-08T06:42:56;100805.94;;;18.38
76713;BMP280;65640;43.154;25.658;2023-08-08T06:45:21;100804.84;;;18.48
76713;BMP280;65640;43.154;25.658;2023-08-08T06:47:47;100813.38;;;18.62
76713;BMP280;65640;43.154;25.658;2023-08-08T06:50:12;100814.63;;;18.56
76713;BMP280;65640;43.154;25.658;2023-08-08T06:52:38;100824.03;;;18.45
76713;BMP280;65640;43.154;25.658;2023-08-08T06:55:03;100818.56;;;18.41
76713;BMP280;65640;43.154;25.658;2023-08-08T06:57:33;100821.06;;;18.38
76713;BMP280;65640;43.154;25.658;2023-08-08T06:59:58;100825.13;;;18.27
76713;BMP280;65640;43.154;25.658;2023-08-08T07:02:24;100828.41;;;18.24
76713;BMP280;65640;43.154;25.658;2023-08-08T07:04:49;100830.09;;;18.28
76713;BMP280;65640;43.154;25.658;2023-08-08T07:07:15;100826.50;;;18.33
76713;BMP280;65640;43.154;25.658;2023-08-08T07:09:40;100813.41;;;18.28
76713;BMP280;65640;43.154;25.658;2023-08-08T07:12:07;100809.38;;;18.39
76713;BMP280;65640;43.154;25.658;2023-08-08T07:14:32;100805.94;;;18.47
76713;BMP280;65640;43.154;25.658;2023-08-08T07:16:58;100806.13;;;18.71
76713;BMP280;65640;43.154;25.658;2023-08-08T07:19:23;100823.34;;;19.03
76713;BMP280;65640;43.154;25.658;2023-08-08T07:21:49;100815.50;;;19.15
76713;BMP280;65640;43.154;25.658;2023-08-08T07:24:15;100806.38;;;19.25
76713;BMP280;65640;43.154;25.658;2023-08-08T07:26:41;100803.47;;;19.38
76713;BMP280;65640;43.154;25.658;2023-08-08T07:29:06;100789.75;;;19.57
76713;BMP280;65640;43.154;25.658;2023-08-08T07:31:32;100793.69;;;19.72
76713;BMP280;65640;43.154;25.658;2023-08-08T07:33:57;100784.84;;;20.01
76713;BMP280;65640;43.154;25.658;2023-08-08T07:36:23;100784.66;;;20.18
76713;BMP280;65640;43.154;25.658;2023-08-08T07:38:48;100795.94;;;20.15
76713;BMP280;65640;43.154;25.658;2023-08-08T07:41:14;100796.16;;;20.10
76713;BMP280;65640;43.154;25.658;2023-08-08T07:43:39;100793.72;;;20.05
76713;BMP280;65640;43.154;25.658;2023-08-08T07:46:05;100796.22;;;20.34
76713;BMP280;65640;43.154;25.658;2023-08-08T07:48:30;100799.97;;;20.33
76713;BMP280;65640;43.154;25.658;2023-08-08T07:50:56;100803.31;;;20.30
76713;BMP280;65640;43.154;25.658;2023-08-08T07:53:21;100802.81;;;20.16
76713;BMP280;65640;43.154;25.658;2023-08-08T07:55:47;100801.34;;;20.06
76713;BMP280;65640;43.154;25.658;2023-08-08T07:58:12;100801.19;;;20.23
76713;BMP280;65640;43.154;25.658;2023-08-08T08:00:37;100795.75;;;20.32
76713;BMP280;65640;43.154;25.658;2023-08-08T08:03:04;100794.78;;;20.36
76713;BMP280;65640;43.154;25.658;2023-08-08T08:05:29;100799.56;;;20.43
76713;BMP280;65640;43.154;25.658;2023-08-08T08:07:55;100797.13;;;20.62
76713;BMP280;65640;43.154;25.658;2023-08-08T08:10:20;100797.03;;;20.83
76713;BMP280;65640;43.154;25.658;2023-08-08T08:12:45;100801.69;;;20.86
76713;BMP280;65640;43.154;25.658;2023-08-08T08:15:11;100796.50;;;20.89
76713;BMP280;65640;43.154;25.658;2023-08-08T08:17:37;100795.34;;;21.03
76713;BMP280;65640;43.154;25.658;2023-08-08T08:20:02;100795.63;;;20.73
76713;BMP280;65640;43.154;25.658;2023-08-08T08:22:36;100790.03;;;20.54
76713;BMP280;65640;43.154;25.658;2023-08-08T08:25:01;100791.81;;;20.50
76713;BMP280;65640;43.154;25.658;2023-08-08T08:27:27;100784.38;;;20.56
76713;BMP280;65640;43.154;25.658;2023-08-08T08:29:52;100784.72;;;20.66
76713;BMP280;65640;43.154;25.658;2023-08-08T08:32:18;100785.97;;;20.69
76713;BMP280;65640;43.154;25.658;2023-08-08T08:34:43;100785.38;;;21.00
76713;BMP280;65640;43.154;25.658;2023-08-08T08:37:09;100774.59;;;21.48
76713;BMP280;65640;43.154;25.658;2023-08-08T08:39:35;100775.34;;;22.04
76713;BMP280;65640;43.154;25.658;2023-08-08T08:42:02;100769.13;;;22.31
76713;BMP280;65640;43.154;25.658;2023-08-08T08:44:31;100769.22;;;22.51
76713;BMP280;65640;43.154;25.658;2023-08-08T08:47:02;100772.84;;;22.27
76713;BMP280;65640;43.154;25.658;2023-08-08T08:49:30;100769.22;;;22.51
76713;BMP280;65640;43.154;25.658;2023-08-08T08:51:59;100767.56;;;22.62
76713;BMP280;65640;43.154;25.658;2023-08-08T08:54:27;100767.94;;;22.79
76713;BMP280;65640;43.154;25.658;2023-08-08T08:56:53;100766.38;;;22.78
76713;BMP280;65640;43.154;25.658;2023-08-08T08:59:19;100764.13;;;22.96
76713;BMP280;65640;43.154;25.658;2023-08-08T09:01:44;100764.28;;;23.22
76713;BMP280;65640;43.154;25.658;2023-08-08T09:04:10;100762.72;;;23.21
76713;BMP280;65640;43.154;25.658;2023-08-08T09:06:36;100759.41;;;23.09
76713;BMP280;65640;43.154;25.658;2023-08-08T09:09:04;100758.19;;;22.87
76713;BMP280;65640;43.154;25.658;2023-08-08T09:11:31;100756.13;;;22.96
76713;BMP280;65640;43.154;25.658;2023-08-08T09:13:57;100753.09;;;23.36
76713;BMP280;65640;43.154;25.658;2023-08-08T09:16:25;100749.03;;;23.45
76713;BMP280;65640;43.154;25.658;2023-08-08T09:18:50;100738.28;;;23.61
76713;BMP280;65640;43.154;25.658;2023-08-08T09:21:16;100738.00;;;23.92
76713;BMP280;65640;43.154;25.658;2023-08-08T09:23:42;100737.78;;;24.01
76713;BMP280;65640;43.154;25.658;2023-08-08T09:26:09;100735.91;;;24.01
76713;BMP280;65640;43.154;25.658;2023-08-08T09:28:35;100731.69;;;23.55
76713;BMP280;65640;43.154;25.658;2023-08-08T09:31:00;100730.31;;;23.45
76713;BMP280;65640;43.154;25.658;2023-08-08T09:33:29;100728.72;;;24.05
76713;BMP280;65640;43.154;25.658;2023-08-08T09:35:54;100734.06;;;24.32
76713;BMP280;65640;43.154;25.658;2023-08-08T09:38:20;100726.88;;;24.39
76713;BMP280;65640;43.154;25.658;2023-08-08T09:40:46;100733.06;;;24.43
76713;BMP280;65640;43.154;25.658;2023-08-08T09:43:11;100726.97;;;24.17
76713;BMP280;65640;43.154;25.658;2023-08-08T09:45:40;100731.66;;;24.00
76713;BMP280;65640;43.154;25.658;2023-08-08T09:48:09;100725.66;;;24.33
76713;BMP280;65640;43.154;25.658;2023-08-08T09:50:35;100721.41;;;24.58
76713;BMP280;65640;43.154;25.658;2023-08-08T09:53:02;100724.69;;;24.75
76713;BMP280;65640;43.154;25.658;2023-08-08T09:55:28;100725.94;;;24.84
76713;BMP280;65640;43.154;25.658;2023-08-08T09:57:54;100719.50;;;24.89
76713;BMP280;65640;43.154;25.658;2023-08-08T10:00:20;100718.09;;;24.98
76713;BMP280;65640;43.154;25.658;2023-08-08T10:02:46;100719.88;;;25.24
76713;BMP280;65640;43.154;25.658;2023-08-08T10:05:12;100704.06;;;25.56
76713;BMP280;65640;43.154;25.658;2023-08-08T10:07:39;100713.75;;;25.64
76713;BMP280;65640;43.154;25.658;2023-08-08T10:10:06;100715.66;;;25.63
76713;BMP280;65640;43.154;25.658;2023-08-08T10:12:32;100712.53;;;25.58
76713;BMP280;65640;43.154;25.658;2023-08-08T10:14:58;100710.66;;;25.62
76713;BMP280;65640;43.154;25.658;2023-08-08T10:17:23;100705.94;;;25.52
76713;BMP280;65640;43.154;25.658;2023-08-08T10:19:51;100698.72;;;25.56
76713;BMP280;65640;43.154;25.658;2023-08-08T10:22:20;100713.63;;;26.01
76713;BMP280;65640;43.154;25.658;2023-08-08T10:24:47;100704.06;;;26.03
76713;BMP280;65640;43.154;25.658;2023-08-08T10:27:27;100708.94;;;25.91
76713;BMP280;65640;43.154;25.658;2023-08-08T10:29:53;100710.19;;;26.04
76713;BMP280;65640;43.154;25.658;2023-08-08T10:32:24;100709.22;;;25.31
76713;BMP280;65640;43.154;25.658;2023-08-08T10:34:55;100702.31;;;25.30
76713;BMP280;65640;43.154;25.658;2023-08-08T10:37:21;100698.47;;;25.75
76713;BMP280;65640;43.154;25.658;2023-08-08T10:39:57;100699.41;;;25.97
76713;BMP280;65640;43.154;25.658;2023-08-08T10:42:24;100698.66;;;26.00
76713;BMP280;65640;43.154;25.658;2023-08-08T10:44:56;100693.16;;;25.82
76713;BMP280;65640;43.154;25.658;2023-08-08T10:47:26;100686.06;;;26.07
76713;BMP280;65640;43.154;25.658;2023-08-08T10:52:30;100698.50;;;26.44
76713;BMP280;65640;43.154;25.658;2023-08-08T10:54:55;100702.19;;;26.11
76713;BMP280;65640;43.154;25.658;2023-08-08T10:57:24;100703.53;;;25.84
76713;BMP280;65640;43.154;25.658;2023-08-08T10:59:50;100700.31;;;26.22
76713;BMP280;65640;43.154;25.658;2023-08-08T11:02:16;100700.88;;;26.56
76713;BMP280;65640;43.154;25.658;2023-08-08T11:04:43;100690.41;;;26.33
76713;BMP280;65640;43.154;25.658;2023-08-08T11:07:09;100684.03;;;26.69
76713;BMP280;65640;43.154;25.658;2023-08-08T11:09:34;100691.72;;;26.81
76713;BMP280;65640;43.154;25.658;2023-08-08T11:12:00;100687.84;;;26.65
76713;BMP280;65640;43.154;25.658;2023-08-08T11:14:25;100696.06;;;26.14
76713;BMP280;65640;43.154;25.658;2023-08-08T11:16:51;100692.09;;;25.90
76713;BMP280;65640;43.154;25.658;2023-08-08T11:19:18;100687.94;;;25.52
76713;BMP280;65640;43.154;25.658;2023-08-08T11:21:47;100686.50;;;25.62
76713;BMP280;65640;43.154;25.658;2023-08-08T11:24:13;100698.19;;;25.87
76713;BMP280;65640;43.154;25.658;2023-08-08T11:26:39;100696.56;;;26.33
76713;BMP280;65640;43.154;25.658;2023-08-08T11:29:06;100687.00;;;26.47
76713;BMP280;65640;43.154;25.658;2023-08-08T11:31:32;100691.91;;;26.23
76713;BMP280;65640;43.154;25.658;2023-08-08T11:33:58;100688.75;;;26.18
76713;BMP280;65640;43.154;25.658;2023-08-08T11:36:26;100695.06;;;25.82
76713;BMP280;65640;43.154;25.658;2023-08-08T11:38:52;100689.63;;;25.24
76713;BMP280;65640;43.154;25.658;2023-08-08T11:41:22;100681.66;;;25.31
76713;BMP280;65640;43.154;25.658;2023-08-08T11:43:50;100684.16;;;25.57
76713;BMP280;65640;43.154;25.658;2023-08-08T11:46:16;100681.94;;;25.66
76713;BMP280;65640;43.154;25.658;2023-08-08T11:48:43;100687.91;;;26.00
76713;BMP280;65640;43.154;25.658;2023-08-08T11:51:14;100683.75;;;26.06
76713;BMP280;65640;43.154;25.658;2023-08-08T11:53:48;100671.59;;;26.29
76713;BMP280;65640;43.154;25.658;2023-08-08T11:56:14;100672.47;;;26.55
76713;BMP280;65640;43.154;25.658;2023-08-08T11:58:40;100673.53;;;26.32
76713;BMP280;65640;43.154;25.658;2023-08-08T12:01:05;100670.72;;;26.08
76713;BMP280;65640;43.154;25.658;2023-08-08T12:03:31;100656.19;;;26.19
76713;BMP280;65640;43.154;25.658;2023-08-08T12:05:56;100658.16;;;26.29
76713;BMP280;65640;43.154;25.658;2023-08-08T12:08:21;100658.63;;;26.49
76713;BMP280;65640;43.154;25.658;2023-08-08T12:10:50;100658.59;;;26.46
76713;BMP280;65640;43.154;25.658;2023-08-08T12:13:22;100672.38;;;26.33
76713;BMP280;65640;43.154;25.658;2023-08-08T12:15:48;100653.88;;;26.18
76713;BMP280;65640;43.154;25.658;2023-08-08T12:18:16;100661.25;;;26.35
76713;BMP280;65640;43.154;25.658;2023-08-08T12:20:43;100657.78;;;26.34
76713;BMP280;65640;43.154;25.658;2023-08-08T12:23:08;100649.81;;;26.56
76713;BMP280;65640;43.154;25.658;2023-08-08T12:25:34;100649.03;;;26.48
76713;BMP280;65640;43.154;25.658;2023-08-08T12:27:59;100649.00;;;26.45
76713;BMP280;65640;43.154;25.658;2023-08-08T12:30:25;100640.97;;;26.59
76713;BMP280;65640;43.154;25.658;2023-08-08T12:32:50;100639.44;;;26.58
76713;BMP280;65640;43.154;25.658;2023-08-08T12:35:15;100638.72;;;26.68
76713;BMP280;65640;43.154;25.658;2023-08-08T12:37:42;100636.31;;;26.42
76713;BMP280;65640;43.154;25.658;2023-08-08T12:40:07;100640.25;;;26.69
76713;BMP280;65640;43.154;25.658;2023-08-08T12:42:33;100636.78;;;26.65
76713;BMP280;65640;43.154;25.658;2023-08-08T12:44:58;100656.38;;;26.69
76713;BMP280;65640;43.154;25.658;2023-08-08T12:47:24;100646.28;;;26.30
76713;BMP280;65640;43.154;25.658;2023-08-08T12:49:49;100650.91;;;26.33
76713;BMP280;65640;43.154;25.658;2023-08-08T12:52:15;100636.38;;;26.49
76713;BMP280;65640;43.154;25.658;2023-08-08T12:54:40;100641.78;;;26.73
76713;BMP280;65640;43.154;25.658;2023-08-08T12:57:06;100643.28;;;26.50
76713;BMP280;65640;43.154;25.658;2023-08-08T12:59:31;100649.06;;;26.55
76713;BMP280;65640;43.154;25.658;2023-08-08T13:01:56;100644.06;;;26.50
76713;BMP280;65640;43.154;25.658;2023-08-08T13:04:22;100636.75;;;26.54
76713;BMP280;65640;43.154;25.658;2023-08-08T13:06:48;100641.81;;;26.84
76713;BMP280;65640;43.154;25.658;2023-08-08T13:09:14;100633.38;;;26.82
76713;BMP280;65640;43.154;25.658;2023-08-08T13:11:40;100648.34;;;26.86
76713;BMP280;65640;43.154;25.658;2023-08-08T13:14:06;100648.34;;;26.90
76713;BMP280;65640;43.154;25.658;2023-08-08T13:16:32;100649.50;;;26.85
76713;BMP280;65640;43.154;25.658;2023-08-08T13:18:57;100639.50;;;26.75
76713;BMP280;65640;43.154;25.658;2023-08-08T13:21:22;100635.28;;;26.78
76713;BMP280;65640;43.154;25.658;2023-08-08T13:23:48;100630.69;;;26.75
76713;BMP280;65640;43.154;25.658;2023-08-08T13:26:13;100641.00;;;26.66
76713;BMP280;65640;43.154;25.658;2023-08-08T13:28:39;100635.63;;;26.62
76713;BMP280;65640;43.154;25.658;2023-08-08T13:31:05;100636.47;;;26.91
76713;BMP280;65640;43.154;25.658;2023-08-08T13:33:32;100634.94;;;27.08
76713;BMP280;65640;43.154;25.658;2023-08-08T13:35:58;100637.94;;;26.71
76713;BMP280;65640;43.154;25.658;2023-08-08T13:38:23;100640.19;;;26.48
76713;BMP280;65640;43.154;25.658;2023-08-08T13:40:49;100641.75;;;26.66
76713;BMP280;65640;43.154;25.658;2023-08-08T13:43:14;100644.84;;;26.65